createdAt,value
2018-07-24T00:01:20.652Z,44.50
2018-07-24T00:03:48.760Z,44.50
2018-07-24T00:06:16.819Z,44.50
2018-07-24T00:08:44.892Z,44.50
2018-07-24T00:11:13.024Z,44.60
2018-07-24T00:13:41.140Z,45.20
2018-07-24T00:16:09.218Z,44.60
2018-07-24T00:18:37.383Z,44.60
2018-07-24T00:21:05.628Z,44.60
2018-07-24T00:23:33.735Z,44.60
2018-07-24T00:26:01.901Z,44.60
2018-07-24T00:28:30.180Z,44.70
2018-07-24T00:30:58.301Z,44.70
2018-07-24T00:33:26.420Z,44.70
2018-07-24T00:35:54.527Z,44.70
2018-07-24T00:38:22.691Z,44.70
2018-07-24T00:40:50.772Z,44.60
2018-07-24T00:43:18.876Z,44.60
2018-07-24T00:45:46.948Z,44.60
2018-07-24T00:48:15.032Z,44.60
2018-07-24T00:50:43.113Z,44.60
2018-07-24T00:53:11.180Z,44.50
2018-07-24T00:55:39.252Z,44.60
2018-07-24T00:58:07.392Z,44.60
2018-07-24T01:00:35.460Z,44.60
2018-07-24T01:03:03.589Z,44.60
2018-07-24T01:07:59.630Z,44.60
2018-07-24T01:12:55.686Z,44.70
2018-07-24T01:15:23.761Z,44.70
2018-07-24T01:17:51.830Z,44.70
2018-07-24T01:20:19.916Z,44.60
2018-07-24T01:22:48.069Z,44.70
2018-07-24T01:25:16.140Z,44.70
2018-07-24T01:27:44.200Z,44.60
2018-07-24T01:30:12.283Z,44.70
2018-07-24T01:32:40.364Z,44.70
2018-07-24T01:35:08.452Z,44.70
2018-07-24T01:37:36.578Z,44.70
2018-07-24T01:40:04.799Z,44.70
2018-07-24T01:42:32.930Z,44.70
2018-07-24T01:45:01.016Z,44.70
2018-07-24T01:47:29.108Z,44.70
2018-07-24T01:49:57.181Z,44.70
2018-07-24T01:52:25.347Z,44.70
2018-07-24T01:54:53.400Z,44.70
2018-07-24T01:57:21.589Z,44.70
2018-07-24T01:59:49.671Z,44.70
2018-07-24T02:02:18.071Z,44.70
2018-07-24T02:04:46.246Z,44.70
2018-07-24T02:07:14.360Z,44.80
2018-07-24T02:09:42.432Z,44.80
2018-07-24T02:12:10.508Z,44.80
2018-07-24T02:14:38.572Z,44.80
2018-07-24T02:17:06.645Z,44.80
2018-07-24T02:19:34.737Z,44.80
2018-07-24T02:22:02.808Z,45.40
2018-07-24T02:24:30.893Z,44.80
2018-07-24T02:26:59.038Z,44.90
2018-07-24T02:29:27.168Z,44.90
2018-07-24T02:31:55.282Z,44.90
2018-07-24T02:34:23.400Z,44.90
2018-07-24T02:36:51.448Z,44.90
2018-07-24T02:39:19.544Z,44.90
2018-07-24T02:41:47.613Z,44.90
2018-07-24T02:44:15.668Z,44.90
2018-07-24T02:46:43.776Z,44.90
2018-07-24T02:49:11.892Z,44.90
2018-07-24T02:51:40.028Z,44.90
2018-07-24T02:56:36.117Z,45.50
2018-07-24T02:59:05.200Z,44.90
2018-07-24T03:01:33.317Z,44.90
2018-07-24T03:04:01.453Z,45.00
2018-07-24T03:06:29.537Z,45.00
2018-07-24T03:08:57.626Z,45.00
2018-07-24T03:11:25.836Z,44.90
2018-07-24T03:13:54.017Z,44.90
2018-07-24T03:16:22.201Z,44.90
2018-07-24T03:18:50.229Z,45.00
2018-07-24T03:21:18.372Z,45.00
2018-07-24T03:23:46.489Z,45.00
2018-07-24T03:26:14.604Z,45.00
2018-07-24T03:28:42.684Z,45.00
2018-07-24T03:31:10.764Z,45.00
2018-07-24T03:33:38.952Z,45.00
2018-07-24T03:36:07.029Z,45.60
2018-07-24T03:38:35.097Z,45.00
2018-07-24T03:41:03.237Z,45.00
2018-07-24T03:43:31.392Z,45.00
2018-07-24T03:45:59.503Z,45.00
2018-07-24T03:48:27.641Z,45.00
2018-07-24T03:50:55.721Z,45.00
2018-07-24T03:53:23.778Z,45.00
2018-07-24T03:55:51.908Z,45.00
2018-07-24T03:58:20.003Z,45.00
2018-07-24T04:00:48.100Z,45.00
2018-07-24T04:03:16.212Z,45.00
2018-07-24T04:05:44.360Z,45.30
2018-07-24T04:08:12.425Z,45.10
2018-07-24T04:10:40.524Z,45.10
2018-07-24T04:13:08.592Z,45.10
2018-07-24T04:15:36.662Z,45.10
2018-07-24T04:18:04.785Z,45.10
2018-07-24T04:20:32.876Z,45.10
2018-07-24T04:23:01.002Z,45.30
2018-07-24T04:27:56.980Z,45.10
2018-07-24T04:30:25.096Z,45.10
2018-07-24T04:32:53.200Z,45.10
2018-07-24T04:35:21.255Z,45.10
2018-07-24T04:37:49.317Z,45.10
2018-07-24T04:40:17.455Z,45.10
2018-07-24T04:42:45.539Z,45.10
2018-07-24T04:45:13.635Z,45.10
2018-07-24T04:47:41.716Z,45.10
2018-07-24T04:50:09.873Z,45.10
2018-07-24T04:52:37.972Z,45.10
2018-07-24T04:55:06.373Z,45.10
2018-07-24T05:00:02.444Z,45.10
2018-07-24T05:02:30.635Z,45.10
2018-07-24T05:04:58.736Z,44.60
2018-07-24T05:09:54.768Z,45.20
2018-07-24T05:12:22.881Z,45.20
2018-07-24T05:14:51.081Z,45.20
2018-07-24T05:17:19.144Z,45.20
2018-07-24T05:19:47.250Z,45.20
2018-07-24T05:22:15.364Z,45.20
2018-07-24T05:24:43.442Z,45.20
2018-07-24T05:27:11.542Z,45.20
2018-07-24T05:29:39.613Z,45.20
2018-07-24T05:32:08.224Z,45.20
2018-07-24T05:34:36.368Z,45.20
2018-07-24T05:37:04.456Z,45.20
2018-07-24T05:39:32.586Z,45.20
2018-07-24T05:42:00.708Z,45.20
2018-07-24T05:44:28.826Z,45.20
2018-07-24T05:46:56.895Z,45.30
2018-07-24T05:49:25.002Z,45.30
2018-07-24T05:51:53.072Z,45.30
2018-07-24T05:54:21.151Z,45.30
2018-07-24T05:56:49.220Z,45.30
2018-07-24T05:59:17.442Z,45.30
2018-07-24T06:01:45.548Z,45.30
2018-07-24T06:04:13.649Z,45.30
2018-07-24T06:06:41.740Z,45.30
2018-07-24T06:09:10.113Z,45.30
2018-07-24T06:11:38.388Z,45.90
2018-07-24T06:14:06.464Z,45.30
2018-07-24T06:16:34.607Z,45.30
2018-07-24T06:19:02.681Z,45.30
2018-07-24T06:23:58.774Z,45.30
2018-07-24T06:26:26.913Z,45.40
2018-07-24T06:28:54.993Z,45.40
2018-07-24T06:31:23.068Z,45.40
2018-07-24T06:33:51.145Z,45.40
2018-07-24T06:36:19.259Z,45.40
2018-07-24T06:38:47.320Z,45.40
2018-07-24T06:41:15.487Z,45.40
2018-07-24T06:43:43.561Z,45.40
2018-07-24T06:46:11.682Z,45.30
2018-07-24T06:48:39.772Z,45.20
2018-07-24T06:51:07.833Z,45.30
2018-07-24T06:53:35.940Z,45.20
2018-07-24T06:56:04.077Z,45.20
2018-07-24T06:58:32.170Z,45.20
2018-07-24T07:01:00.260Z,45.20
2018-07-24T07:03:28.476Z,45.20
2018-07-24T07:05:56.547Z,45.20
2018-07-24T07:08:24.636Z,45.20
2018-07-24T07:10:52.756Z,45.20
2018-07-24T07:13:20.880Z,45.20
2018-07-24T07:18:17.844Z,45.40
2018-07-24T07:20:45.929Z,45.20
2018-07-24T07:23:14.091Z,45.20
2018-07-24T07:25:42.164Z,45.20
2018-07-24T07:28:10.253Z,45.20
2018-07-24T07:30:38.506Z,45.20
2018-07-24T07:33:06.612Z,45.20
2018-07-24T07:35:34.704Z,45.20
2018-07-24T07:38:02.849Z,45.20
2018-07-24T07:40:31.000Z,45.20
2018-07-24T07:42:59.219Z,45.20
2018-07-24T07:45:27.408Z,45.10
2018-07-24T07:47:55.486Z,45.10
2018-07-24T07:50:23.560Z,45.10
2018-07-24T07:52:51.701Z,45.10
2018-07-24T07:55:19.821Z,45.10
2018-07-24T07:57:48.031Z,45.00
2018-07-24T08:00:16.102Z,45.10
2018-07-24T08:02:44.193Z,45.00
2018-07-24T08:05:12.283Z,45.00
2018-07-24T08:07:40.369Z,45.00
2018-07-24T08:10:08.475Z,45.00
2018-07-24T08:12:36.586Z,45.00
2018-07-24T08:15:04.815Z,45.00
2018-07-24T08:17:32.919Z,45.00
2018-07-24T08:20:01.030Z,45.00
2018-07-24T08:22:29.136Z,45.00
2018-07-24T08:24:57.468Z,45.00
2018-07-24T08:27:25.553Z,45.00
2018-07-24T08:29:53.647Z,44.90
2018-07-24T08:32:21.732Z,44.90
2018-07-24T08:34:49.845Z,44.90
2018-07-24T08:37:17.941Z,44.90
2018-07-24T08:39:46.299Z,44.90
2018-07-24T08:42:14.392Z,45.00
2018-07-24T08:44:42.524Z,44.90
2018-07-24T08:47:10.846Z,44.90
2018-07-24T08:49:38.932Z,44.80
2018-07-24T08:52:07.063Z,44.80
2018-07-24T08:54:35.269Z,44.80
2018-07-24T08:57:03.435Z,44.70
2018-07-24T08:59:31.556Z,44.80
2018-07-24T09:02:00.234Z,44.80
2018-07-24T09:04:28.426Z,44.80
2018-07-24T09:06:56.637Z,44.80
2018-07-24T09:11:52.624Z,44.80
2018-07-24T09:14:20.694Z,44.80
2018-07-24T09:16:48.832Z,44.80
2018-07-24T09:19:16.929Z,44.80
2018-07-24T09:21:45.126Z,44.80
2018-07-24T09:24:13.279Z,44.80
2018-07-24T09:26:41.467Z,44.80
2018-07-24T09:29:09.665Z,44.80
2018-07-24T09:31:37.775Z,44.80
2018-07-24T09:34:05.941Z,44.70
2018-07-24T09:36:34.078Z,44.70
2018-07-24T09:39:02.241Z,44.70
2018-07-24T09:41:30.381Z,44.70
2018-07-24T09:43:58.502Z,44.70
2018-07-24T09:46:26.572Z,44.70
2018-07-24T09:48:54.669Z,44.70
2018-07-24T09:51:22.735Z,44.70
2018-07-24T09:53:50.804Z,44.70
2018-07-24T09:56:18.903Z,44.70
2018-07-24T09:58:46.959Z,44.70
2018-07-24T10:01:20.648Z,44.70
2018-07-24T10:03:48.730Z,44.70
2018-07-24T10:06:16.805Z,44.70
2018-07-24T10:08:44.953Z,44.70
2018-07-24T10:11:13.004Z,44.60
2018-07-24T10:13:41.083Z,44.70
2018-07-24T10:16:09.164Z,44.60
2018-07-24T10:18:37.577Z,44.60
2018-07-24T10:21:05.721Z,44.60
2018-07-24T10:26:01.803Z,44.60
2018-07-24T10:28:29.912Z,44.60
2018-07-24T10:30:58.233Z,44.60
2018-07-24T10:33:26.320Z,44.60
2018-07-24T10:35:54.581Z,44.50
2018-07-24T10:38:22.795Z,44.60
2018-07-24T10:40:50.885Z,44.50
2018-07-24T10:43:18.953Z,44.50
2018-07-24T10:45:47.087Z,44.90
2018-07-24T10:48:15.188Z,45.20
2018-07-24T10:50:43.275Z,44.50
2018-07-24T10:53:11.370Z,44.50
2018-07-24T10:55:39.528Z,44.50
2018-07-24T10:58:07.616Z,44.50
2018-07-24T11:00:35.727Z,44.50
2018-07-24T11:03:03.883Z,44.50
2018-07-24T11:05:31.986Z,44.50
2018-07-24T11:08:00.157Z,44.40
2018-07-24T11:10:28.241Z,44.40
2018-07-24T11:12:56.309Z,44.40
2018-07-24T11:17:52.337Z,44.40
2018-07-24T11:20:20.438Z,44.40
2018-07-24T11:22:49.103Z,44.40
2018-07-24T11:25:16.884Z,44.70
2018-07-24T11:27:44.966Z,44.30
2018-07-24T11:30:13.099Z,44.30
2018-07-24T11:32:41.176Z,44.30
2018-07-24T11:35:09.251Z,44.90
2018-07-24T11:37:37.360Z,44.40
2018-07-24T11:40:05.564Z,44.30
2018-07-24T11:42:33.680Z,44.30
2018-07-24T11:45:01.804Z,44.30
2018-07-24T11:47:29.879Z,44.30
2018-07-24T11:49:58.041Z,44.30
2018-07-24T11:52:26.112Z,45.00
2018-07-24T11:54:54.271Z,44.30
2018-07-24T11:57:22.351Z,44.30
2018-07-24T12:02:18.312Z,44.30
2018-07-24T12:04:46.478Z,44.30
2018-07-24T12:07:14.548Z,44.30
2018-07-24T12:09:42.655Z,44.30
2018-07-24T12:12:10.748Z,44.30
2018-07-24T12:14:38.954Z,44.70
2018-07-24T12:17:07.160Z,44.20
2018-07-24T12:19:35.298Z,44.20
2018-07-24T12:22:03.403Z,44.20
2018-07-24T12:24:31.587Z,44.20
2018-07-24T12:26:59.779Z,44.20
2018-07-24T12:29:27.943Z,44.20
2018-07-24T12:31:55.965Z,44.20
2018-07-24T12:34:24.021Z,44.20
2018-07-24T12:36:52.368Z,44.20
2018-07-24T12:39:20.490Z,44.20
2018-07-24T12:41:48.592Z,44.10
2018-07-24T12:44:16.652Z,44.20
2018-07-24T12:49:12.724Z,44.20
2018-07-24T12:54:08.740Z,44.10
2018-07-24T12:56:36.880Z,44.10
2018-07-24T12:59:05.101Z,44.10
2018-07-24T13:01:33.212Z,44.20
2018-07-24T13:04:01.390Z,44.10
2018-07-24T13:06:29.459Z,44.10
2018-07-24T13:08:57.558Z,44.20
2018-07-24T13:11:25.651Z,44.10
2018-07-24T13:13:53.753Z,44.10
2018-07-24T13:16:21.822Z,44.10
2018-07-24T13:18:49.892Z,44.10
2018-07-24T13:21:17.972Z,44.10
2018-07-24T13:23:46.053Z,44.10
2018-07-24T13:26:15.201Z,44.10
2018-07-24T13:28:43.281Z,44.10
2018-07-24T13:31:11.352Z,44.10
2018-07-24T13:33:39.437Z,44.10
2018-07-24T13:36:07.514Z,44.00
2018-07-24T13:38:35.617Z,44.00
2018-07-24T13:41:03.734Z,44.00
2018-07-24T13:43:31.885Z,44.00
2018-07-24T13:46:00.100Z,44.00
2018-07-24T13:48:28.188Z,44.00
2018-07-24T13:50:56.288Z,44.00
2018-07-24T13:53:24.382Z,44.00
2018-07-24T13:55:52.469Z,44.60
2018-07-24T13:58:20.569Z,44.00
2018-07-24T14:00:48.694Z,44.00
2018-07-24T14:03:16.808Z,44.00
2018-07-24T14:05:44.957Z,44.00
2018-07-24T14:08:13.372Z,44.00
2018-07-24T14:10:41.507Z,44.00
2018-07-24T14:13:09.604Z,44.60
2018-07-24T14:15:37.734Z,44.00
2018-07-24T14:18:05.905Z,44.00
2018-07-24T14:20:34.066Z,43.90
2018-07-24T14:23:02.212Z,44.00
2018-07-24T14:25:30.349Z,43.90
2018-07-24T14:27:58.460Z,43.90
2018-07-24T14:30:26.553Z,44.00
2018-07-24T14:35:29.096Z,44.00
2018-07-24T14:37:57.244Z,44.00
2018-07-24T14:40:25.355Z,44.00
2018-07-24T14:42:53.616Z,44.00
2018-07-24T14:45:21.861Z,44.00
2018-07-24T14:47:50.010Z,44.00
2018-07-24T14:50:18.088Z,43.90
2018-07-24T14:52:46.224Z,43.80
2018-07-24T14:55:14.292Z,43.80
2018-07-24T14:57:42.388Z,43.80
2018-07-24T15:00:10.447Z,43.90
2018-07-24T15:02:38.560Z,44.00
2018-07-24T15:05:06.917Z,43.90
2018-07-24T15:07:35.106Z,43.90
2018-07-24T15:10:03.272Z,43.90
2018-07-24T15:12:31.539Z,44.00
2018-07-24T15:14:59.623Z,43.90
2018-07-24T15:19:55.607Z,44.60
2018-07-24T15:22:23.632Z,43.90
2018-07-24T15:24:51.768Z,43.90
2018-07-24T15:27:19.937Z,43.90
2018-07-24T15:29:48.161Z,43.90
2018-07-24T15:32:16.364Z,43.90
2018-07-24T15:34:44.600Z,43.90
2018-07-24T15:37:12.533Z,43.90
2018-07-24T15:39:40.636Z,43.90
2018-07-24T15:42:08.754Z,43.90
2018-07-24T15:44:36.859Z,44.00
2018-07-24T15:49:32.952Z,44.00
2018-07-24T15:52:01.354Z,44.00
2018-07-24T15:54:29.521Z,44.00
2018-07-24T15:56:57.625Z,44.00
2018-07-24T15:59:25.736Z,44.00
2018-07-24T16:01:53.804Z,44.00
2018-07-24T16:04:21.949Z,44.00
2018-07-24T16:06:50.026Z,44.00
2018-07-24T16:09:18.158Z,43.90
2018-07-24T16:11:46.259Z,43.90
2018-07-24T16:14:14.349Z,43.90
2018-07-24T16:16:42.424Z,43.90
2018-07-24T16:19:10.589Z,43.90
2018-07-24T16:21:38.745Z,43.90
2018-07-24T16:24:06.821Z,43.90
2018-07-24T16:26:34.953Z,43.90
2018-07-24T16:29:03.113Z,43.90
2018-07-24T16:31:31.336Z,43.90
2018-07-24T16:34:00.520Z,43.90
2018-07-24T16:36:28.743Z,43.90
2018-07-24T16:38:56.816Z,43.80
2018-07-24T16:41:24.969Z,43.80
2018-07-24T16:43:53.228Z,43.90
2018-07-24T16:46:21.284Z,43.90
2018-07-24T16:48:49.400Z,43.90
2018-07-24T16:51:17.636Z,43.90
2018-07-24T16:53:45.820Z,43.90
2018-07-24T16:56:14.093Z,43.90
2018-07-24T16:58:42.205Z,43.80
2018-07-24T17:01:10.393Z,43.80
2018-07-24T17:03:38.534Z,43.80
2018-07-24T17:06:06.838Z,43.80
2018-07-24T17:08:34.952Z,43.90
2018-07-24T17:11:03.368Z,43.80
2018-07-24T17:13:31.601Z,44.50
2018-07-24T17:15:59.678Z,43.80
2018-07-24T17:18:27.864Z,43.80
2018-07-24T17:20:55.932Z,43.80
2018-07-24T17:23:24.047Z,43.80
2018-07-24T17:25:52.149Z,43.90
2018-07-24T17:28:20.216Z,43.90
2018-07-24T17:30:48.326Z,43.90
2018-07-24T17:33:16.448Z,43.90
2018-07-24T17:35:44.644Z,44.00
2018-07-24T17:38:12.750Z,44.00
2018-07-24T17:40:40.970Z,44.00
2018-07-24T17:43:09.249Z,44.00
2018-07-24T17:45:37.373Z,44.00
2018-07-24T17:48:05.919Z,44.00
2018-07-24T17:53:01.926Z,44.00
2018-07-24T17:55:30.026Z,44.00
2018-07-24T17:57:58.112Z,44.00
2018-07-24T18:00:26.194Z,44.00
2018-07-24T18:02:54.253Z,44.00
2018-07-24T18:05:22.324Z,44.00
2018-07-24T18:07:50.422Z,44.60
2018-07-24T18:10:18.512Z,44.10
2018-07-24T18:12:46.570Z,44.70
2018-07-24T18:15:14.692Z,44.10
2018-07-24T18:17:42.856Z,44.10
2018-07-24T18:20:10.951Z,44.20
2018-07-24T18:22:39.053Z,44.10
2018-07-24T18:25:07.208Z,44.10
2018-07-24T18:27:35.363Z,44.20
2018-07-24T18:30:03.524Z,44.20
2018-07-24T18:32:31.850Z,44.20
2018-07-24T18:34:59.975Z,44.20
2018-07-24T18:37:28.059Z,44.20
2018-07-24T18:39:56.237Z,44.80
2018-07-24T18:42:24.500Z,44.20
2018-07-24T18:44:52.617Z,44.10
2018-07-24T18:47:20.804Z,44.20
2018-07-24T18:49:48.875Z,44.20
2018-07-24T18:52:16.988Z,44.20
2018-07-24T18:57:13.004Z,44.20
2018-07-24T18:59:41.101Z,44.20
2018-07-24T19:02:09.614Z,44.20
2018-07-24T19:04:37.732Z,44.20
2018-07-24T19:07:06.006Z,44.20
2018-07-24T19:09:34.093Z,44.20
2018-07-24T19:12:02.228Z,44.20
2018-07-24T19:14:30.390Z,43.60
2018-07-24T19:16:58.546Z,44.20
2018-07-24T19:19:26.740Z,44.20
2018-07-24T19:21:54.921Z,44.20
2018-07-24T19:24:22.979Z,44.30
2018-07-24T19:26:51.160Z,44.30
2018-07-24T19:29:19.228Z,44.30
2018-07-24T19:31:47.455Z,44.30
2018-07-24T19:34:15.629Z,44.30
2018-07-24T19:36:43.749Z,44.30
2018-07-24T19:39:12.309Z,44.30
2018-07-24T19:41:40.688Z,44.30
2018-07-24T19:44:09.437Z,44.30
2018-07-24T19:46:37.696Z,44.30
2018-07-24T19:49:06.380Z,44.30
2018-07-24T19:51:34.476Z,44.30
2018-07-24T19:54:03.075Z,44.30
2018-07-24T19:56:31.815Z,44.30
2018-07-24T19:59:00.413Z,44.30
2018-07-24T20:01:28.853Z,44.30
2018-07-24T20:03:56.944Z,44.30
2018-07-24T20:06:25.040Z,44.30
2018-07-24T20:08:53.308Z,44.30
2018-07-24T20:11:21.478Z,44.30
2018-07-24T20:13:49.594Z,44.40
2018-07-24T20:16:17.712Z,44.40
2018-07-24T20:18:45.865Z,44.40
2018-07-24T20:21:13.951Z,44.40
2018-07-24T20:23:42.212Z,44.40
2018-07-24T20:26:10.196Z,44.40
2018-07-24T20:28:38.384Z,44.50
2018-07-24T20:31:06.431Z,44.50
2018-07-24T20:33:34.513Z,44.50
2018-07-24T20:36:02.705Z,44.50
2018-07-24T20:38:30.791Z,44.50
2018-07-24T20:40:58.929Z,44.50
2018-07-24T20:43:27.012Z,44.50
2018-07-24T20:45:55.198Z,44.50
2018-07-24T20:48:23.304Z,44.50
2018-07-24T20:50:51.362Z,44.50
2018-07-24T20:53:19.473Z,44.60
2018-07-24T20:55:47.549Z,44.50
2018-07-24T20:58:15.631Z,44.50
2018-07-24T21:00:43.730Z,44.60
2018-07-24T21:03:12.004Z,45.20
2018-07-24T21:05:40.048Z,44.60
2018-07-24T21:08:08.157Z,44.60
2018-07-24T21:10:36.229Z,44.60
2018-07-24T21:13:04.313Z,44.60
2018-07-24T21:15:32.379Z,44.60
2018-07-24T21:18:00.444Z,44.60
2018-07-24T21:20:28.759Z,44.60
2018-07-24T21:22:56.825Z,44.60
2018-07-24T21:25:24.902Z,44.60
2018-07-24T21:27:53.032Z,44.50
2018-07-24T21:30:21.092Z,44.60
2018-07-24T21:32:49.419Z,44.60
2018-07-24T21:35:17.528Z,44.60
2018-07-24T21:37:45.632Z,44.60
2018-07-24T21:40:13.779Z,44.60
2018-07-24T21:42:41.848Z,44.50
2018-07-24T21:45:09.935Z,44.50
2018-07-24T21:47:38.020Z,44.50
2018-07-24T21:50:06.098Z,44.50
2018-07-24T21:52:34.330Z,44.60
2018-07-24T21:55:02.653Z,44.50
2018-07-24T21:57:30.699Z,44.60
2018-07-24T21:59:58.772Z,44.50
2018-07-24T22:02:26.849Z,44.50
2018-07-24T22:04:54.932Z,44.60
2018-07-24T22:07:23.011Z,44.60
2018-07-24T22:09:51.087Z,44.60
2018-07-24T22:12:19.219Z,44.60
2018-07-24T22:14:47.373Z,44.60
2018-07-24T22:17:15.443Z,44.60
2018-07-24T22:19:43.521Z,44.60
2018-07-24T22:22:11.609Z,44.60
2018-07-24T22:24:39.717Z,44.60
2018-07-24T22:27:07.825Z,44.60
2018-07-24T22:29:35.936Z,44.60
2018-07-24T22:32:04.063Z,44.60
2018-07-24T22:34:32.234Z,44.60
2018-07-24T22:37:00.312Z,44.60
2018-07-24T22:39:28.394Z,44.70
2018-07-24T22:41:56.468Z,44.60
2018-07-24T22:44:24.558Z,44.60
2018-07-24T22:46:52.629Z,44.70
2018-07-24T22:49:20.733Z,45.30
2018-07-24T22:51:48.837Z,44.70
2018-07-24T22:54:17.013Z,44.70
2018-07-24T22:56:45.125Z,44.70
2018-07-24T22:59:13.140Z,44.70
2018-07-24T23:01:41.305Z,44.70
2018-07-24T23:04:09.356Z,44.70
2018-07-24T23:06:37.476Z,44.80
2018-07-24T23:09:07.766Z,44.80
2018-07-24T23:11:35.876Z,44.80
2018-07-24T23:14:03.964Z,44.80
2018-07-24T23:16:32.086Z,44.80
2018-07-24T23:19:00.220Z,44.80
2018-07-24T23:21:28.316Z,44.80
2018-07-24T23:23:56.568Z,44.80
2018-07-24T23:26:24.630Z,44.80
2018-07-24T23:28:52.700Z,44.80
2018-07-24T23:31:20.940Z,44.80
2018-07-24T23:33:49.028Z,44.80
2018-07-24T23:36:17.186Z,44.80
2018-07-24T23:38:45.341Z,44.80
2018-07-24T23:41:13.413Z,44.90
2018-07-24T23:43:41.492Z,44.90
2018-07-24T23:46:09.559Z,44.90
2018-07-24T23:48:37.706Z,45.00
2018-07-24T23:51:05.992Z,45.60
2018-07-24T23:53:34.092Z,45.00
2018-07-24T23:56:02.214Z,45.00
2018-07-24T23:58:30.296Z,44.90
